createdAt,value
2023-05-10T00:03:27.008Z,21.02
2023-05-10T00:08:29.071Z,20.67
2023-05-10T00:13:31.384Z,17.40
2023-05-10T00:18:33.533Z,27.90
2023-05-10T00:23:35.623Z,29.70
2023-05-10T00:28:37.721Z,23.00
2023-05-10T00:33:39.842Z,18.23
2023-05-10T00:38:42.039Z,17.48
2023-05-10T00:43:44.201Z,27.17
2023-05-10T00:48:46.660Z,13.63
2023-05-10T00:53:50.439Z,28.10
2023-05-10T00:58:53.023Z,18.83
2023-05-10T01:03:56.304Z,22.70
2023-05-10T01:08:58.496Z,12.70
2023-05-10T01:14:00.820Z,16.55
2023-05-10T01:19:03.217Z,15.77
2023-05-10T01:24:41.912Z,19.27
2023-05-10T01:30:04.997Z,19.58
2023-05-10T01:35:35.690Z,21.88
2023-05-10T01:40:46.065Z,24.65
2023-05-10T01:46:05.637Z,17.45
2023-05-10T01:51:09.445Z,16.42
2023-05-10T01:56:14.098Z,24.08
2023-05-10T02:01:17.452Z,17.23
2023-05-10T02:06:22.583Z,17.02
2023-05-10T02:11:25.944Z,16.15
2023-05-10T02:16:29.103Z,19.48
2023-05-10T02:21:32.330Z,13.75
2023-05-10T02:26:37.031Z,13.85
2023-05-10T02:31:40.027Z,18.92
2023-05-10T02:36:43.176Z,17.77
2023-05-10T02:41:48.230Z,21.30
2023-05-10T02:46:50.629Z,23.60
2023-05-10T02:51:57.882Z,20.60
2023-05-10T02:57:04.852Z,18.45
2023-05-10T03:02:07.640Z,14.80
2023-05-10T03:07:10.316Z,17.90
2023-05-10T03:12:31.304Z,15.48
2023-05-10T03:17:58.217Z,19.05
2023-05-10T03:23:14.677Z,17.38
2023-05-10T03:28:18.789Z,18.90
2023-05-10T03:33:21.734Z,17.00
2023-05-10T03:38:24.031Z,21.13
2023-05-10T03:43:26.168Z,18.63
2023-05-10T03:48:28.343Z,14.15
2023-05-10T03:53:30.501Z,18.92
2023-05-10T03:58:32.721Z,17.05
2023-05-10T04:03:37.408Z,14.25
2023-05-10T04:08:41.092Z,18.85
2023-05-10T04:13:44.126Z,22.33
2023-05-10T04:18:46.503Z,20.98
2023-05-10T04:23:48.597Z,14.30
2023-05-10T04:28:50.657Z,16.75
2023-05-10T04:33:53.293Z,16.35
2023-05-10T04:38:55.434Z,12.15
2023-05-10T04:43:57.760Z,15.00
2023-05-10T04:48:59.817Z,14.77
2023-05-10T04:54:06.579Z,17.55
2023-05-10T04:59:08.949Z,19.17
2023-05-10T05:04:11.043Z,20.85
2023-05-10T05:09:13.257Z,18.15
2023-05-10T05:14:15.359Z,18.65
2023-05-10T05:19:17.606Z,18.45
2023-05-10T05:24:19.762Z,15.73
2023-05-10T05:29:21.991Z,17.85
2023-05-10T05:34:25.246Z,26.45
2023-05-10T05:39:27.316Z,18.83
2023-05-10T05:44:29.857Z,14.82
2023-05-10T05:49:32.116Z,21.33
2023-05-10T05:54:34.239Z,15.45
2023-05-10T05:59:36.424Z,13.57
2023-05-10T06:04:39.291Z,26.27
2023-05-10T06:09:41.502Z,14.23
2023-05-10T06:14:43.581Z,16.23
2023-05-10T06:19:45.622Z,16.98
2023-05-10T06:24:48.005Z,13.52
2023-05-10T06:29:52.229Z,18.00
2023-05-10T06:34:58.461Z,15.93
2023-05-10T06:40:00.523Z,12.77
2023-05-10T06:45:02.709Z,11.00
2023-05-10T06:50:05.039Z,15.38
2023-05-10T06:55:07.662Z,13.40
2023-05-10T07:00:10.835Z,13.93
2023-05-10T07:05:13.277Z,13.27
2023-05-10T07:10:15.543Z,14.70
2023-05-10T07:15:18.269Z,15.32
2023-05-10T07:20:20.755Z,7.63
2023-05-10T07:25:22.829Z,9.15
2023-05-10T07:30:25.190Z,5.10
2023-05-10T07:35:27.488Z,4.93
2023-05-10T07:40:29.815Z,6.72
2023-05-10T07:45:31.914Z,4.68
2023-05-10T07:50:34.069Z,7.28
2023-05-10T07:55:36.127Z,8.50
2023-05-10T08:00:40.562Z,6.97
2023-05-10T08:05:42.736Z,8.65
2023-05-10T08:10:45.077Z,10.32
2023-05-10T08:15:47.356Z,10.82
2023-05-10T08:20:49.583Z,10.25
2023-05-10T08:25:51.716Z,14.88
2023-05-10T08:30:53.924Z,14.80
2023-05-10T08:35:56.075Z,10.23
2023-05-10T08:40:59.449Z,8.65
2023-05-10T08:46:05.442Z,7.45
2023-05-10T08:56:11.632Z,8.27
2023-05-10T09:01:16.872Z,11.88
2023-05-10T09:06:19.203Z,13.52
2023-05-10T09:11:21.678Z,7.50
2023-05-10T09:16:24.728Z,13.68
2023-05-10T09:21:27.490Z,13.48
2023-05-10T09:26:29.555Z,7.60
2023-05-10T09:31:52.271Z,13.93
2023-05-10T09:36:57.212Z,12.55
2023-05-10T09:42:08.111Z,10.87
2023-05-10T09:47:10.315Z,8.75
2023-05-10T09:52:12.400Z,10.68
2023-05-10T09:57:22.995Z,9.70
2023-05-10T10:02:30.436Z,7.82
2023-05-10T10:07:33.082Z,8.60
2023-05-10T10:12:35.239Z,6.22
2023-05-10T10:17:41.073Z,5.30
2023-05-10T10:22:44.817Z,7.05
2023-05-10T10:27:52.826Z,5.70
2023-05-10T10:33:24.230Z,6.90
2023-05-10T10:38:52.915Z,7.45
2023-05-10T10:44:26.284Z,5.63
2023-05-10T10:49:28.782Z,7.22
2023-05-10T10:54:30.931Z,8.30
2023-05-10T10:59:32.994Z,6.97
2023-05-10T11:04:47.453Z,9.60
2023-05-10T11:09:49.872Z,7.25
2023-05-10T11:14:52.478Z,6.05
2023-05-10T11:20:25.994Z,7.32
2023-05-10T11:25:29.158Z,5.90
2023-05-10T11:30:32.369Z,6.43
2023-05-10T11:35:43.421Z,8.98
2023-05-10T11:40:45.908Z,10.05
2023-05-10T11:45:48.040Z,6.22
2023-05-10T11:50:50.534Z,8.10
2023-05-10T11:55:52.656Z,8.82
2023-05-10T12:00:54.832Z,8.02
2023-05-10T12:05:58.160Z,6.88
2023-05-10T12:11:13.198Z,5.85
2023-05-10T12:16:16.873Z,8.48
2023-05-10T12:21:20.498Z,7.85
2023-05-10T12:26:24.314Z,5.97
2023-05-10T12:31:26.457Z,6.82
2023-05-10T12:36:28.527Z,4.38
2023-05-10T12:41:30.597Z,8.23
2023-05-10T12:46:33.794Z,5.88
2023-05-10T12:51:36.019Z,6.45
2023-05-10T12:56:38.129Z,4.50
2023-05-10T13:01:40.214Z,5.22
2023-05-10T13:06:42.283Z,7.20
2023-05-10T13:11:44.417Z,6.53
2023-05-10T13:16:46.471Z,7.47
2023-05-10T13:21:48.555Z,9.45
2023-05-10T13:26:50.929Z,8.43
2023-05-10T13:31:53.207Z,9.55
2023-05-10T13:36:56.772Z,8.82
2023-05-10T13:41:58.778Z,8.32
2023-05-10T13:47:01.082Z,7.43
2023-05-10T13:52:07.962Z,6.05
2023-05-10T13:57:10.091Z,4.93
2023-05-10T14:02:13.934Z,4.53
2023-05-10T14:07:16.101Z,5.47
2023-05-10T14:12:18.115Z,7.78
2023-05-10T14:17:20.440Z,5.15
2023-05-10T14:22:22.996Z,5.50
2023-05-10T14:27:25.573Z,6.20
2023-05-10T14:32:28.523Z,10.18
2023-05-10T14:37:30.612Z,4.43
2023-05-10T14:42:32.652Z,5.80
2023-05-10T14:47:34.897Z,5.60
2023-05-10T14:52:37.471Z,7.10
2023-05-10T14:57:39.582Z,3.63
2023-05-10T15:02:41.744Z,5.72
2023-05-10T15:07:44.891Z,7.93
2023-05-10T15:12:47.230Z,4.70
2023-05-10T15:17:49.682Z,2.85
2023-05-10T15:22:51.832Z,6.05
2023-05-10T15:27:54.007Z,5.60
2023-05-10T15:32:56.543Z,4.07
2023-05-10T15:37:58.753Z,5.22
2023-05-10T15:43:00.800Z,4.95
2023-05-10T15:48:03.020Z,2.65
2023-05-10T15:53:05.292Z,5.53
2023-05-10T15:58:07.426Z,4.53
2023-05-10T16:03:09.568Z,5.95
2023-05-10T16:08:12.024Z,8.73
2023-05-10T16:13:15.249Z,6.38
2023-05-10T16:18:18.395Z,6.20
2023-05-10T16:23:21.009Z,4.72
2023-05-10T16:28:25.099Z,4.63
2023-05-10T16:33:27.981Z,5.15
2023-05-10T16:38:30.598Z,6.28
2023-05-10T16:43:33.025Z,6.85
2023-05-10T16:48:35.119Z,9.85
2023-05-10T16:53:37.852Z,6.82
2023-05-10T16:58:39.906Z,5.95
2023-05-10T17:03:42.042Z,3.35
2023-05-10T17:08:45.082Z,5.10
2023-05-10T17:13:47.315Z,5.22
2023-05-10T17:18:49.525Z,3.70
2023-05-10T17:23:51.728Z,3.78
2023-05-10T17:28:54.835Z,5.55
2023-05-10T17:33:57.221Z,6.53
2023-05-10T17:38:59.393Z,4.60
2023-05-10T17:44:01.528Z,4.82
2023-05-10T17:49:03.632Z,5.60
2023-05-10T17:54:05.716Z,4.88
2023-05-10T17:59:07.837Z,3.97
2023-05-10T18:04:10.044Z,4.93
2023-05-10T18:09:12.372Z,7.88
2023-05-10T18:14:16.040Z,5.10
2023-05-10T18:19:22.450Z,6.15
2023-05-10T18:24:37.492Z,4.82
2023-05-10T18:29:41.523Z,3.75
2023-05-10T18:34:43.554Z,9.40
2023-05-10T18:39:45.659Z,6.50
2023-05-10T18:44:47.750Z,6.38
2023-05-10T18:49:49.891Z,5.90
2023-05-10T18:54:52.741Z,6.47
2023-05-10T18:59:55.082Z,5.95
2023-05-10T19:04:59.674Z,6.18
2023-05-10T19:10:02.057Z,4.63
2023-05-10T19:15:04.552Z,6.32
2023-05-10T19:20:08.026Z,4.45
2023-05-10T19:25:13.101Z,8.18
2023-05-10T19:30:16.516Z,7.60
2023-05-10T19:35:20.082Z,4.65
2023-05-10T19:40:22.795Z,5.22
2023-05-10T19:45:25.149Z,9.07
2023-05-10T19:50:27.366Z,6.80
2023-05-10T19:55:32.010Z,8.13
2023-05-10T20:00:34.322Z,8.60
2023-05-10T20:05:36.963Z,8.20
2023-05-10T20:10:39.688Z,7.65
2023-05-10T20:15:41.988Z,6.80
2023-05-10T20:20:44.112Z,8.73
2023-05-10T20:25:46.259Z,10.23
2023-05-10T20:30:48.861Z,6.43
2023-05-10T20:35:52.405Z,9.45
2023-05-10T20:40:55.610Z,10.30
2023-05-10T20:46:05.053Z,8.50
2023-05-10T20:51:07.314Z,8.70
2023-05-10T20:56:09.350Z,6.28
2023-05-10T21:01:11.518Z,7.95
2023-05-10T21:06:13.596Z,9.10
2023-05-10T21:11:15.786Z,8.65
2023-05-10T21:16:17.953Z,5.13
2023-05-10T21:21:20.119Z,7.53
2023-05-10T21:26:22.201Z,5.93
2023-05-10T21:31:24.273Z,7.85
2023-05-10T21:36:26.932Z,6.20
2023-05-10T21:41:29.160Z,7.03
2023-05-10T21:46:32.820Z,8.38
2023-05-10T21:51:34.897Z,4.80
2023-05-10T21:56:37.274Z,3.78
2023-05-10T22:01:40.207Z,7.88
2023-05-10T22:06:42.389Z,5.20
2023-05-10T22:11:44.597Z,5.93
2023-05-10T22:16:46.720Z,9.55
2023-05-10T22:21:48.917Z,10.77
2023-05-10T22:26:53.497Z,8.57
2023-05-10T22:31:55.645Z,8.93
2023-05-10T22:36:57.737Z,13.35
2023-05-10T22:41:59.804Z,9.20
2023-05-10T22:47:02.101Z,7.50
2023-05-10T22:52:04.287Z,7.63
2023-05-10T22:57:06.377Z,11.15
2023-05-10T23:02:09.676Z,10.43
2023-05-10T23:07:11.825Z,8.25
2023-05-10T23:12:13.871Z,9.98
2023-05-10T23:17:16.409Z,9.20
2023-05-10T23:22:18.515Z,10.57
2023-05-10T23:27:20.669Z,15.10
2023-05-10T23:32:23.465Z,5.22
2023-05-10T23:37:25.620Z,6.82
2023-05-10T23:42:27.701Z,11.00
2023-05-10T23:47:29.777Z,11.75
2023-05-10T23:52:31.957Z,10.63
2023-05-10T23:57:34.075Z,6.55
